sensor_id;sensor_type;location;lat;lon;timestamp;P1;durP1;ratioP1;P2;durP2;ratioP2
1122;SDS011;548;48.778;9.252;2023-01-01T00:01:04;585.57;;;475.30;;
1122;SDS011;548;48.778;9.252;2023-01-01T00:03:32;579.13;;;458.10;;
1122;SDS011;548;48.778;9.252;2023-01-01T06:09:20;24.20;;;22.20;;
1122;SDS011;548;48.778;9.252;2023-01-01T06:11:47;23.30;;;20.70;;
1122;SDS011;548;48.778;9.252;2023-01-01T06:14:14;23.57;;;21.73;;
1122;SDS011;548;48.778;9.252;2023-01-01T06:16:40;24.60;;;22.50;;
1122;SDS011;548;48.778;9.252;2023-01-01T06:19:07;22.80;;;21.17;;
1122;SDS011;548;48.778;9.252;2023-01-01T06:21:34;24.03;;;22.33;;
1122;SDS011;548;48.778;9.252;2023-01-01T06:24:00;23.33;;;21.23;;
1122;SDS011;548;48.778;9.252;2023-01-01T06:26:29;22.87;;;21.10;;
1122;SDS011;548;48.778;9.252;2023-01-01T06:28:58;24.23;;;22.20;;
1122;SDS011;548;48.778;9.252;2023-01-01T06:31:25;23.57;;;21.50;;
1122;SDS011;548;48.778;9.252;2023-01-01T06:33:54;22.27;;;20.77;;
1122;SDS011;548;48.778;9.252;2023-01-01T06:36:21;22.27;;;20.27;;
1122;SDS011;548;48.778;9.252;2023-01-01T06:38:49;23.50;;;21.67;;
1122;SDS011;548;48.778;9.252;2023-01-01T06:41:18;23.57;;;21.60;;
1122;SDS011;548;48.778;9.252;2023-01-01T06:43:48;25.00;;;22.87;;
1122;SDS011;548;48.778;9.252;2023-01-01T06:46:15;22.40;;;20.73;;
1122;SDS011;548;48.778;9.252;2023-01-01T06:48:44;21.97;;;20.10;;
1122;SDS011;548;48.778;9.252;2023-01-01T06:51:12;20.80;;;19.30;;
1122;SDS011;548;48.778;9.252;2023-01-01T06:53:40;20.00;;;18.57;;
1122;SDS011;548;48.778;9.252;2023-01-01T06:56:07;22.57;;;20.57;;
1122;SDS011;548;48.778;9.252;2023-01-01T06:58:34;18.93;;;17.60;;
1122;SDS011;548;48.778;9.252;2023-01-01T07:01:03;21.67;;;19.87;;
1122;SDS011;548;48.778;9.252;2023-01-01T07:03:31;22.00;;;20.40;;
1122;SDS011;548;48.778;9.252;2023-01-01T07:05:58;21.87;;;20.20;;
1122;SDS011;548;48.778;9.252;2023-01-01T07:08:24;20.87;;;19.30;;
1122;SDS011;548;48.778;9.252;2023-01-01T07:10:51;25.43;;;23.13;;
1122;SDS011;548;48.778;9.252;2023-01-01T07:13:21;31.10;;;28.30;;
1122;SDS011;548;48.778;9.252;2023-01-01T07:15:47;39.00;;;35.47;;
1122;SDS011;548;48.778;9.252;2023-01-01T07:18:15;44.93;;;40.40;;
1122;SDS011;548;48.778;9.252;2023-01-01T07:20:42;48.83;;;43.67;;
1122;SDS011;548;48.778;9.252;2023-01-01T07:23:09;49.90;;;44.53;;
1122;SDS011;548;48.778;9.252;2023-01-01T07:25:36;53.00;;;47.40;;
1122;SDS011;548;48.778;9.252;2023-01-01T07:28:08;52.70;;;47.40;;
1122;SDS011;548;48.778;9.252;2023-01-01T07:31:22;58.33;;;50.20;;
1122;SDS011;548;48.778;9.252;2023-01-01T07:33:50;67.70;;;59.70;;
1122;SDS011;548;48.778;9.252;2023-01-01T07:36:17;67.33;;;60.13;;
1122;SDS011;548;48.778;9.252;2023-01-01T07:38:44;66.80;;;59.20;;
1122;SDS011;548;48.778;9.252;2023-01-01T07:41:10;65.23;;;57.53;;
1122;SDS011;548;48.778;9.252;2023-01-01T07:43:37;69.83;;;61.90;;
1122;SDS011;548;48.778;9.252;2023-01-01T07:46:04;77.23;;;67.33;;
1122;SDS011;548;48.778;9.252;2023-01-01T07:48:30;75.33;;;66.30;;
1122;SDS011;548;48.778;9.252;2023-01-01T07:50:58;85.07;;;73.87;;
1122;SDS011;548;48.778;9.252;2023-01-01T07:53:25;80.33;;;71.00;;
1122;SDS011;548;48.778;9.252;2023-01-01T07:55:52;93.30;;;77.57;;
1122;SDS011;548;48.778;9.252;2023-01-01T07:58:18;89.23;;;77.30;;
1122;SDS011;548;48.778;9.252;2023-01-01T08:00:46;97.07;;;80.37;;
1122;SDS011;548;48.778;9.252;2023-01-01T08:03:13;71.47;;;62.20;;
1122;SDS011;548;48.778;9.252;2023-01-01T08:05:41;71.67;;;63.87;;
1122;SDS011;548;48.778;9.252;2023-01-01T08:08:09;66.00;;;59.13;;
1122;SDS011;548;48.778;9.252;2023-01-01T08:10:36;69.93;;;62.77;;
1122;SDS011;548;48.778;9.252;2023-01-01T08:13:04;72.23;;;62.47;;
1122;SDS011;548;48.778;9.252;2023-01-01T08:15:32;80.77;;;71.67;;
1122;SDS011;548;48.778;9.252;2023-01-01T08:18:00;81.53;;;67.73;;
1122;SDS011;548;48.778;9.252;2023-01-01T08:20:28;84.93;;;74.63;;
1122;SDS011;548;48.778;9.252;2023-01-01T08:22:56;87.70;;;77.13;;
1122;SDS011;548;48.778;9.252;2023-01-01T08:25:24;90.93;;;78.90;;
1122;SDS011;548;48.778;9.252;2023-01-01T08:27:51;86.50;;;77.30;;
1122;SDS011;548;48.778;9.252;2023-01-01T08:30:17;87.67;;;77.33;;
1122;SDS011;548;48.778;9.252;2023-01-01T08:32:44;94.90;;;84.40;;
1122;SDS011;548;48.778;9.252;2023-01-01T08:35:11;96.67;;;84.23;;
1122;SDS011;548;48.778;9.252;2023-01-01T08:37:37;93.80;;;82.83;;
1122;SDS011;548;48.778;9.252;2023-01-01T08:40:05;98.03;;;86.40;;
1122;SDS011;548;48.778;9.252;2023-01-01T08:42:34;99.27;;;81.83;;
1122;SDS011;548;48.778;9.252;2023-01-01T08:45:00;93.77;;;78.50;;
1122;SDS011;548;48.778;9.252;2023-01-01T08:47:27;97.90;;;81.67;;
1122;SDS011;548;48.778;9.252;2023-01-01T08:49:54;93.27;;;79.60;;
1122;SDS011;548;48.778;9.252;2023-01-01T08:52:20;86.70;;;72.50;;
1122;SDS011;548;48.778;9.252;2023-01-01T08:54:47;81.57;;;69.20;;
1122;SDS011;548;48.778;9.252;2023-01-01T08:57:14;68.37;;;61.07;;
1122;SDS011;548;48.778;9.252;2023-01-01T08:59:42;58.47;;;52.33;;
1122;SDS011;548;48.778;9.252;2023-01-01T09:02:09;52.63;;;47.23;;
1122;SDS011;548;48.778;9.252;2023-01-01T09:04:37;44.13;;;40.07;;
1122;SDS011;548;48.778;9.252;2023-01-01T09:07:03;41.33;;;37.27;;
1122;SDS011;548;48.778;9.252;2023-01-01T09:09:30;37.17;;;33.97;;
1122;SDS011;548;48.778;9.252;2023-01-01T09:11:57;38.47;;;35.07;;
1122;SDS011;548;48.778;9.252;2023-01-01T09:14:28;41.37;;;37.80;;
1122;SDS011;548;48.778;9.252;2023-01-01T09:16:56;42.60;;;38.50;;
1122;SDS011;548;48.778;9.252;2023-01-01T09:19:23;48.70;;;43.80;;
1122;SDS011;548;48.778;9.252;2023-01-01T09:21:50;54.07;;;48.67;;
1122;SDS011;548;48.778;9.252;2023-01-01T09:24:17;58.37;;;52.47;;
1122;SDS011;548;48.778;9.252;2023-01-01T09:26:44;58.10;;;52.40;;
1122;SDS011;548;48.778;9.252;2023-01-01T09:29:11;59.47;;;53.00;;
1122;SDS011;548;48.778;9.252;2023-01-01T09:31:42;63.40;;;56.90;;
1122;SDS011;548;48.778;9.252;2023-01-01T09:34:10;64.73;;;57.90;;
1122;SDS011;548;48.778;9.252;2023-01-01T09:36:37;53.10;;;47.40;;
1122;SDS011;548;48.778;9.252;2023-01-01T09:39:04;60.37;;;53.87;;
1122;SDS011;548;48.778;9.252;2023-01-01T09:41:34;61.10;;;54.70;;
1122;SDS011;548;48.778;9.252;2023-01-01T09:44:15;57.67;;;52.23;;
1122;SDS011;548;48.778;9.252;2023-01-01T09:46:52;61.07;;;54.87;;
1122;SDS011;548;48.778;9.252;2023-01-01T09:49:24;55.80;;;50.13;;
1122;SDS011;548;48.778;9.252;2023-01-01T09:51:57;56.70;;;50.80;;
1122;SDS011;548;48.778;9.252;2023-01-01T09:54:30;56.17;;;50.67;;
1122;SDS011;548;48.778;9.252;2023-01-01T09:57:00;50.07;;;45.20;;
1122;SDS011;548;48.778;9.252;2023-01-01T09:59:30;50.23;;;45.10;;
1122;SDS011;548;48.778;9.252;2023-01-01T10:01:58;50.13;;;44.93;;
1122;SDS011;548;48.778;9.252;2023-01-01T10:04:43;52.17;;;47.13;;
1122;SDS011;548;48.778;9.252;2023-01-01T10:07:22;49.60;;;44.37;;
1122;SDS011;548;48.778;9.252;2023-01-01T10:09:57;48.33;;;43.67;;
1122;SDS011;548;48.778;9.252;2023-01-01T10:12:29;45.87;;;41.60;;
1122;SDS011;548;48.778;9.252;2023-01-01T10:15:03;48.10;;;43.27;;
1122;SDS011;548;48.778;9.252;2023-01-01T10:17:38;46.93;;;42.47;;
1122;SDS011;548;48.778;9.252;2023-01-01T10:20:14;46.60;;;42.30;;
1122;SDS011;548;48.778;9.252;2023-01-01T10:22:47;49.00;;;44.00;;
1122;SDS011;548;48.778;9.252;2023-01-01T10:25:19;49.27;;;44.57;;
1122;SDS011;548;48.778;9.252;2023-01-01T10:27:48;52.23;;;46.87;;
1122;SDS011;548;48.778;9.252;2023-01-01T10:30:19;51.97;;;47.13;;
1122;SDS011;548;48.778;9.252;2023-01-01T10:32:47;47.00;;;42.70;;
1122;SDS011;548;48.778;9.252;2023-01-01T10:35:16;47.27;;;42.83;;
1122;SDS011;548;48.778;9.252;2023-01-01T10:37:44;47.70;;;43.10;;
1122;SDS011;548;48.778;9.252;2023-01-01T10:40:15;48.93;;;44.23;;
1122;SDS011;548;48.778;9.252;2023-01-01T10:42:45;45.63;;;41.10;;
1122;SDS011;548;48.778;9.252;2023-01-01T10:45:14;49.93;;;45.13;;
1122;SDS011;548;48.778;9.252;2023-01-01T10:50:42;44.80;;;40.70;;
1122;SDS011;548;48.778;9.252;2023-01-01T10:53:21;42.10;;;38.10;;
1122;SDS011;548;48.778;9.252;2023-01-01T10:55:51;43.50;;;39.30;;
1122;SDS011;548;48.778;9.252;2023-01-01T10:58:25;38.10;;;34.67;;
1122;SDS011;548;48.778;9.252;2023-01-01T11:00:56;37.10;;;33.57;;
1122;SDS011;548;48.778;9.252;2023-01-01T11:03:24;36.53;;;33.03;;
1122;SDS011;548;48.778;9.252;2023-01-01T11:06:01;36.60;;;32.80;;
1122;SDS011;548;48.778;9.252;2023-01-01T11:08:31;33.80;;;30.77;;
1122;SDS011;548;48.778;9.252;2023-01-01T11:11:01;33.40;;;30.43;;
1122;SDS011;548;48.778;9.252;2023-01-01T11:13:28;30.10;;;27.50;;
1122;SDS011;548;48.778;9.252;2023-01-01T11:15:56;31.03;;;28.50;;
1122;SDS011;548;48.778;9.252;2023-01-01T11:18:25;27.43;;;25.20;;
1122;SDS011;548;48.778;9.252;2023-01-01T11:20:59;29.13;;;26.60;;
1122;SDS011;548;48.778;9.252;2023-01-01T11:23:29;26.80;;;24.73;;
1122;SDS011;548;48.778;9.252;2023-01-01T11:25:59;26.30;;;24.20;;
1122;SDS011;548;48.778;9.252;2023-01-01T11:28:28;25.30;;;23.40;;
1122;SDS011;548;48.778;9.252;2023-01-01T11:33:44;22.93;;;20.83;;
1122;SDS011;548;48.778;9.252;2023-01-01T11:36:20;23.87;;;21.50;;
1122;SDS011;548;48.778;9.252;2023-01-01T11:38:49;22.13;;;20.60;;
1122;SDS011;548;48.778;9.252;2023-01-01T11:41:30;21.57;;;20.13;;
1122;SDS011;548;48.778;9.252;2023-01-01T11:44:09;21.73;;;20.13;;
1122;SDS011;548;48.778;9.252;2023-01-01T11:46:38;26.07;;;23.50;;
1122;SDS011;548;48.778;9.252;2023-01-01T11:49:11;20.50;;;19.00;;
1122;SDS011;548;48.778;9.252;2023-01-01T11:51:40;16.53;;;15.13;;
1122;SDS011;548;48.778;9.252;2023-01-01T11:54:08;18.20;;;16.70;;
1122;SDS011;548;48.778;9.252;2023-01-01T11:56:37;19.90;;;18.60;;
1122;SDS011;548;48.778;9.252;2023-01-01T11:59:05;18.07;;;16.67;;
1122;SDS011;548;48.778;9.252;2023-01-01T12:01:40;18.63;;;17.33;;
1122;SDS011;548;48.778;9.252;2023-01-01T12:04:12;18.53;;;17.20;;
1122;SDS011;548;48.778;9.252;2023-01-01T12:06:46;18.87;;;17.27;;
1122;SDS011;548;48.778;9.252;2023-01-01T12:09:18;17.77;;;16.47;;
1122;SDS011;548;48.778;9.252;2023-01-01T12:11:50;17.50;;;16.13;;
1122;SDS011;548;48.778;9.252;2023-01-01T12:14:21;15.87;;;14.47;;
1122;SDS011;548;48.778;9.252;2023-01-01T12:16:55;16.77;;;15.47;;
1122;SDS011;548;48.778;9.252;2023-01-01T12:19:26;14.20;;;13.30;;
1122;SDS011;548;48.778;9.252;2023-01-01T12:21:57;14.70;;;13.60;;
1122;SDS011;548;48.778;9.252;2023-01-01T12:24:26;14.13;;;13.13;;
1122;SDS011;548;48.778;9.252;2023-01-01T12:27:08;13.77;;;13.07;;
1122;SDS011;548;48.778;9.252;2023-01-01T12:29:51;13.40;;;12.70;;
1122;SDS011;548;48.778;9.252;2023-01-01T12:32:40;14.37;;;13.50;;
1122;SDS011;548;48.778;9.252;2023-01-01T12:35:17;13.20;;;12.50;;
1122;SDS011;548;48.778;9.252;2023-01-01T12:37:56;12.70;;;12.00;;
1122;SDS011;548;48.778;9.252;2023-01-01T12:40:36;12.87;;;11.77;;
1122;SDS011;548;48.778;9.252;2023-01-01T12:43:07;12.10;;;11.40;;
1122;SDS011;548;48.778;9.252;2023-01-01T12:45:39;12.27;;;11.60;;
1122;SDS011;548;48.778;9.252;2023-01-01T12:48:25;12.53;;;11.80;;
1122;SDS011;548;48.778;9.252;2023-01-01T12:51:11;12.73;;;11.90;;
1122;SDS011;548;48.778;9.252;2023-01-01T12:53:48;11.37;;;10.67;;
1122;SDS011;548;48.778;9.252;2023-01-01T12:56:26;13.20;;;12.50;;
1122;SDS011;548;48.778;9.252;2023-01-01T12:58:57;12.77;;;11.93;;
1122;SDS011;548;48.778;9.252;2023-01-01T13:01:29;12.70;;;12.00;;
1122;SDS011;548;48.778;9.252;2023-01-01T13:03:58;12.73;;;11.80;;
1122;SDS011;548;48.778;9.252;2023-01-01T13:06:29;12.33;;;11.73;;
1122;SDS011;548;48.778;9.252;2023-01-01T13:09:03;11.83;;;11.20;;
1122;SDS011;548;48.778;9.252;2023-01-01T13:11:35;11.90;;;11.30;;
1122;SDS011;548;48.778;9.252;2023-01-01T13:14:03;13.40;;;12.30;;
1122;SDS011;548;48.778;9.252;2023-01-01T13:16:34;12.10;;;11.60;;
1122;SDS011;548;48.778;9.252;2023-01-01T13:19:02;11.93;;;11.23;;
1122;SDS011;548;48.778;9.252;2023-01-01T13:21:30;12.40;;;11.60;;
1122;SDS011;548;48.778;9.252;2023-01-01T13:23:59;12.20;;;11.60;;
1122;SDS011;548;48.778;9.252;2023-01-01T13:26:43;12.83;;;12.13;;
1122;SDS011;548;48.778;9.252;2023-01-01T13:29:31;12.60;;;11.90;;
1122;SDS011;548;48.778;9.252;2023-01-01T13:32:03;13.13;;;12.27;;
1122;SDS011;548;48.778;9.252;2023-01-01T13:34:32;12.33;;;11.63;;
1122;SDS011;548;48.778;9.252;2023-01-01T13:39:55;12.83;;;12.10;;
1122;SDS011;548;48.778;9.252;2023-01-01T13:42:36;13.30;;;12.50;;
1122;SDS011;548;48.778;9.252;2023-01-01T13:45:10;13.17;;;12.47;;
1122;SDS011;548;48.778;9.252;2023-01-01T13:47:46;13.60;;;12.80;;
1122;SDS011;548;48.778;9.252;2023-01-01T13:50:36;14.50;;;13.40;;
1122;SDS011;548;48.778;9.252;2023-01-01T13:53:18;14.10;;;13.20;;
1122;SDS011;548;48.778;9.252;2023-01-01T13:56:03;14.90;;;14.00;;
1122;SDS011;548;48.778;9.252;2023-01-01T13:58:52;16.63;;;15.20;;
1122;SDS011;548;48.778;9.252;2023-01-01T14:01:57;15.30;;;14.40;;
1122;SDS011;548;48.778;9.252;2023-01-01T14:04:37;17.33;;;15.93;;
1122;SDS011;548;48.778;9.252;2023-01-01T14:07:10;16.73;;;15.53;;
1122;SDS011;548;48.778;9.252;2023-01-01T14:09:43;16.80;;;15.63;;
1122;SDS011;548;48.778;9.252;2023-01-01T14:12:14;15.93;;;14.90;;
1122;SDS011;548;48.778;9.252;2023-01-01T14:14:42;17.87;;;16.37;;
1122;SDS011;548;48.778;9.252;2023-01-01T14:17:10;17.67;;;16.47;;
1122;SDS011;548;48.778;9.252;2023-01-01T14:19:39;18.30;;;17.00;;
1122;SDS011;548;48.778;9.252;2023-01-01T14:22:06;37.83;;;18.80;;
1122;SDS011;548;48.778;9.252;2023-01-01T14:24:35;17.73;;;16.50;;
1122;SDS011;548;48.778;9.252;2023-01-01T14:27:06;18.13;;;16.93;;
1122;SDS011;548;48.778;9.252;2023-01-01T14:29:34;18.17;;;16.70;;
1122;SDS011;548;48.778;9.252;2023-01-01T14:32:10;20.20;;;18.50;;
1122;SDS011;548;48.778;9.252;2023-01-01T14:34:38;18.33;;;17.03;;
1122;SDS011;548;48.778;9.252;2023-01-01T14:37:17;17.83;;;16.70;;
1122;SDS011;548;48.778;9.252;2023-01-01T14:39:49;19.47;;;17.67;;
1122;SDS011;548;48.778;9.252;2023-01-01T14:42:34;19.23;;;17.83;;
1122;SDS011;548;48.778;9.252;2023-01-01T14:45:03;18.27;;;17.07;;
1122;SDS011;548;48.778;9.252;2023-01-01T14:47:31;17.30;;;16.30;;
1122;SDS011;548;48.778;9.252;2023-01-01T14:50:00;17.83;;;16.67;;
1122;SDS011;548;48.778;9.252;2023-01-01T14:52:30;18.27;;;17.03;;
1122;SDS011;548;48.778;9.252;2023-01-01T14:54:59;18.60;;;17.20;;
1122;SDS011;548;48.778;9.252;2023-01-01T14:57:29;18.30;;;16.80;;
1122;SDS011;548;48.778;9.252;2023-01-01T14:59:57;17.93;;;16.43;;
1122;SDS011;548;48.778;9.252;2023-01-01T15:02:26;17.57;;;16.00;;
1122;SDS011;548;48.778;9.252;2023-01-01T15:04:54;19.00;;;17.20;;
1122;SDS011;548;48.778;9.252;2023-01-01T15:07:22;26.27;;;23.77;;
1122;SDS011;548;48.778;9.252;2023-01-01T15:09:50;20.73;;;19.03;;
1122;SDS011;548;48.778;9.252;2023-01-01T15:12:19;19.07;;;17.70;;
1122;SDS011;548;48.778;9.252;2023-01-01T15:14:47;21.43;;;19.60;;
1122;SDS011;548;48.778;9.252;2023-01-01T15:17:15;17.47;;;16.33;;
1122;SDS011;548;48.778;9.252;2023-01-01T15:19:45;19.80;;;18.40;;
1122;SDS011;548;48.778;9.252;2023-01-01T15:22:25;18.73;;;17.23;;
1122;SDS011;548;48.778;9.252;2023-01-01T15:24:55;19.63;;;18.30;;
1122;SDS011;548;48.778;9.252;2023-01-01T15:27:23;19.80;;;18.00;;
1122;SDS011;548;48.778;9.252;2023-01-01T15:29:52;19.33;;;17.70;;
1122;SDS011;548;48.778;9.252;2023-01-01T15:32:23;18.73;;;17.27;;
1122;SDS011;548;48.778;9.252;2023-01-01T15:34:52;18.60;;;17.30;;
1122;SDS011;548;48.778;9.252;2023-01-01T15:37:22;18.30;;;16.40;;
1122;SDS011;548;48.778;9.252;2023-01-01T15:39:57;19.00;;;17.70;;
1122;SDS011;548;48.778;9.252;2023-01-01T15:42:30;19.20;;;17.60;;
1122;SDS011;548;48.778;9.252;2023-01-01T15:45:16;17.50;;;16.20;;
1122;SDS011;548;48.778;9.252;2023-01-01T15:47:46;18.77;;;17.27;;
1122;SDS011;548;48.778;9.252;2023-01-01T15:50:19;17.30;;;16.10;;
1122;SDS011;548;48.778;9.252;2023-01-01T15:52:48;17.40;;;16.30;;
1122;SDS011;548;48.778;9.252;2023-01-01T15:55:17;17.93;;;16.63;;
1122;SDS011;548;48.778;9.252;2023-01-01T15:57:44;17.10;;;15.90;;
1122;SDS011;548;48.778;9.252;2023-01-01T16:00:17;19.13;;;17.57;;
1122;SDS011;548;48.778;9.252;2023-01-01T16:02:45;18.90;;;17.03;;
1122;SDS011;548;48.778;9.252;2023-01-01T16:05:13;18.40;;;17.20;;
1122;SDS011;548;48.778;9.252;2023-01-01T16:07:42;19.80;;;18.20;;
1122;SDS011;548;48.778;9.252;2023-01-01T16:10:12;17.93;;;16.43;;
1122;SDS011;548;48.778;9.252;2023-01-01T16:12:39;18.67;;;17.23;;
1122;SDS011;548;48.778;9.252;2023-01-01T16:15:06;17.90;;;16.67;;
1122;SDS011;548;48.778;9.252;2023-01-01T16:17:39;16.73;;;15.33;;
1122;SDS011;548;48.778;9.252;2023-01-01T16:20:08;18.40;;;17.00;;
1122;SDS011;548;48.778;9.252;2023-01-01T16:22:38;16.77;;;15.47;;
1122;SDS011;548;48.778;9.252;2023-01-01T16:25:12;18.07;;;16.47;;
1122;SDS011;548;48.778;9.252;2023-01-01T16:27:39;18.57;;;17.00;;
1122;SDS011;548;48.778;9.252;2023-01-01T16:30:06;17.70;;;16.50;;
1122;SDS011;548;48.778;9.252;2023-01-01T16:32:34;18.00;;;16.60;;
1122;SDS011;548;48.778;9.252;2023-01-01T16:35:01;18.87;;;17.13;;
1122;SDS011;548;48.778;9.252;2023-01-01T16:37:29;19.90;;;18.40;;
1122;SDS011;548;48.778;9.252;2023-01-01T16:39:56;19.83;;;18.03;;
1122;SDS011;548;48.778;9.252;2023-01-01T16:42:24;18.10;;;16.70;;
1122;SDS011;548;48.778;9.252;2023-01-01T16:44:51;18.33;;;16.87;;
1122;SDS011;548;48.778;9.252;2023-01-01T16:47:18;20.47;;;18.77;;
1122;SDS011;548;48.778;9.252;2023-01-01T16:49:46;18.10;;;16.23;;
1122;SDS011;548;48.778;9.252;2023-01-01T16:52:13;17.93;;;16.40;;
1122;SDS011;548;48.778;9.252;2023-01-01T16:54:40;17.73;;;15.93;;
1122;SDS011;548;48.778;9.252;2023-01-01T16:57:07;18.80;;;17.40;;
1122;SDS011;548;48.778;9.252;2023-01-01T16:59:35;18.80;;;17.27;;
1122;SDS011;548;48.778;9.252;2023-01-01T17:02:02;18.10;;;16.70;;
1122;SDS011;548;48.778;9.252;2023-01-01T17:04:29;19.63;;;18.23;;
1122;SDS011;548;48.778;9.252;2023-01-01T17:06:55;18.57;;;17.17;;
1122;SDS011;548;48.778;9.252;2023-01-01T17:09:22;20.33;;;18.87;;
1122;SDS011;548;48.778;9.252;2023-01-01T17:11:49;19.97;;;18.27;;
1122;SDS011;548;48.778;9.252;2023-01-01T17:14:15;19.10;;;17.80;;
1122;SDS011;548;48.778;9.252;2023-01-01T17:16:43;19.80;;;18.33;;
1122;SDS011;548;48.778;9.252;2023-01-01T17:19:10;19.33;;;17.97;;
1122;SDS011;548;48.778;9.252;2023-01-01T17:21:37;20.70;;;19.30;;
1122;SDS011;548;48.778;9.252;2023-01-01T17:24:04;20.27;;;18.50;;
1122;SDS011;548;48.778;9.252;2023-01-01T17:26:31;19.50;;;18.00;;
1122;SDS011;548;48.778;9.252;2023-01-01T17:28:59;22.70;;;21.00;;
1122;SDS011;548;48.778;9.252;2023-01-01T17:31:26;22.70;;;20.87;;
1122;SDS011;548;48.778;9.252;2023-01-01T17:33:55;21.40;;;19.57;;
1122;SDS011;548;48.778;9.252;2023-01-01T17:36:21;22.17;;;20.27;;
1122;SDS011;548;48.778;9.252;2023-01-01T17:38:50;21.37;;;19.50;;
1122;SDS011;548;48.778;9.252;2023-01-01T17:41:17;21.37;;;19.47;;
1122;SDS011;548;48.778;9.252;2023-01-01T17:43:44;22.27;;;20.47;;
1122;SDS011;548;48.778;9.252;2023-01-01T17:46:13;21.63;;;19.70;;
1122;SDS011;548;48.778;9.252;2023-01-01T17:48:42;20.53;;;18.93;;
1122;SDS011;548;48.778;9.252;2023-01-01T17:51:11;21.27;;;19.73;;
1122;SDS011;548;48.778;9.252;2023-01-01T17:53:39;21.50;;;19.90;;
1122;SDS011;548;48.778;9.252;2023-01-01T17:56:06;20.13;;;18.73;;
1122;SDS011;548;48.778;9.252;2023-01-01T17:58:33;20.33;;;18.73;;
1122;SDS011;548;48.778;9.252;2023-01-01T18:01:06;21.17;;;19.57;;
1122;SDS011;548;48.778;9.252;2023-01-01T18:03:41;19.43;;;17.97;;
1122;SDS011;548;48.778;9.252;2023-01-01T18:06:08;19.77;;;18.10;;
1122;SDS011;548;48.778;9.252;2023-01-01T18:08:36;19.23;;;17.60;;
1122;SDS011;548;48.778;9.252;2023-01-01T18:11:03;21.67;;;18.63;;
1122;SDS011;548;48.778;9.252;2023-01-01T18:13:30;20.60;;;19.00;;
1122;SDS011;548;48.778;9.252;2023-01-01T18:15:58;19.83;;;18.43;;
1122;SDS011;548;48.778;9.252;2023-01-01T18:18:25;21.40;;;19.30;;
1122;SDS011;548;48.778;9.252;2023-01-01T18:20:59;21.93;;;20.03;;
1122;SDS011;548;48.778;9.252;2023-01-01T18:23:29;21.97;;;20.23;;
1122;SDS011;548;48.778;9.252;2023-01-01T18:25:59;19.30;;;17.90;;
1122;SDS011;548;48.778;9.252;2023-01-01T18:28:26;20.83;;;19.00;;
1122;SDS011;548;48.778;9.252;2023-01-01T18:30:53;19.33;;;18.03;;
1122;SDS011;548;48.778;9.252;2023-01-01T18:33:20;21.90;;;20.00;;
1122;SDS011;548;48.778;9.252;2023-01-01T18:35:46;22.23;;;20.40;;
1122;SDS011;548;48.778;9.252;2023-01-01T18:38:13;23.57;;;21.77;;
1122;SDS011;548;48.778;9.252;2023-01-01T18:40:43;22.30;;;20.40;;
1122;SDS011;548;48.778;9.252;2023-01-01T18:43:23;21.43;;;19.47;;
1122;SDS011;548;48.778;9.252;2023-01-01T18:45:50;20.97;;;19.37;;
1122;SDS011;548;48.778;9.252;2023-01-01T18:48:17;22.17;;;20.37;;
1122;SDS011;548;48.778;9.252;2023-01-01T18:50:46;21.57;;;19.97;;
1122;SDS011;548;48.778;9.252;2023-01-01T18:53:13;20.33;;;18.87;;
1122;SDS011;548;48.778;9.252;2023-01-01T18:55:43;24.40;;;21.97;;
1122;SDS011;548;48.778;9.252;2023-01-01T18:58:13;23.20;;;21.10;;
1122;SDS011;548;48.778;9.252;2023-01-01T19:00:43;21.17;;;19.37;;
1122;SDS011;548;48.778;9.252;2023-01-01T19:03:11;22.13;;;20.10;;
1122;SDS011;548;48.778;9.252;2023-01-01T19:05:41;20.80;;;19.23;;
1122;SDS011;548;48.778;9.252;2023-01-01T19:08:10;21.10;;;19.30;;
1122;SDS011;548;48.778;9.252;2023-01-01T19:10:41;20.67;;;18.97;;
1122;SDS011;548;48.778;9.252;2023-01-01T19:13:19;23.23;;;21.53;;
1122;SDS011;548;48.778;9.252;2023-01-01T19:15:49;23.23;;;21.07;;
1122;SDS011;548;48.778;9.252;2023-01-01T19:18:19;22.60;;;20.60;;
1122;SDS011;548;48.778;9.252;2023-01-01T19:20:48;22.73;;;21.23;;
1122;SDS011;548;48.778;9.252;2023-01-01T19:23:17;21.77;;;19.97;;
1122;SDS011;548;48.778;9.252;2023-01-01T19:25:48;20.00;;;18.50;;
1122;SDS011;548;48.778;9.252;2023-01-01T19:28:23;19.50;;;18.03;;
1122;SDS011;548;48.778;9.252;2023-01-01T19:31:00;22.70;;;20.67;;
1122;SDS011;548;48.778;9.252;2023-01-01T19:33:28;21.33;;;19.43;;
1122;SDS011;548;48.778;9.252;2023-01-01T19:35:55;19.97;;;18.40;;
1122;SDS011;548;48.778;9.252;2023-01-01T19:38:22;19.93;;;18.03;;
1122;SDS011;548;48.778;9.252;2023-01-01T19:40:49;21.10;;;19.43;;
1122;SDS011;548;48.778;9.252;2023-01-01T19:43:15;21.50;;;19.80;;
1122;SDS011;548;48.778;9.252;2023-01-01T19:45:42;20.60;;;18.87;;
1122;SDS011;548;48.778;9.252;2023-01-01T19:48:11;20.00;;;18.37;;
1122;SDS011;548;48.778;9.252;2023-01-01T19:50:37;19.57;;;17.97;;
1122;SDS011;548;48.778;9.252;2023-01-01T19:53:04;19.40;;;17.50;;
1122;SDS011;548;48.778;9.252;2023-01-01T19:55:31;17.50;;;16.40;;
1122;SDS011;548;48.778;9.252;2023-01-01T19:57:57;18.93;;;17.50;;
1122;SDS011;548;48.778;9.252;2023-01-01T20:00:24;17.23;;;15.97;;
1122;SDS011;548;48.778;9.252;2023-01-01T20:02:52;17.50;;;16.20;;
1122;SDS011;548;48.778;9.252;2023-01-01T20:05:20;17.23;;;15.90;;
1122;SDS011;548;48.778;9.252;2023-01-01T20:07:48;15.97;;;14.77;;
1122;SDS011;548;48.778;9.252;2023-01-01T20:10:14;15.87;;;14.57;;
1122;SDS011;548;48.778;9.252;2023-01-01T20:12:41;16.57;;;15.10;;
1122;SDS011;548;48.778;9.252;2023-01-01T20:15:09;16.17;;;15.10;;
1122;SDS011;548;48.778;9.252;2023-01-01T20:17:36;15.20;;;14.20;;
1122;SDS011;548;48.778;9.252;2023-01-01T20:20:03;15.50;;;14.43;;
1122;SDS011;548;48.778;9.252;2023-01-01T20:22:32;14.47;;;13.37;;
1122;SDS011;548;48.778;9.252;2023-01-01T20:24:59;15.97;;;14.57;;
1122;SDS011;548;48.778;9.252;2023-01-01T20:27:25;14.77;;;13.77;;
1122;SDS011;548;48.778;9.252;2023-01-01T20:29:52;14.43;;;13.10;;
1122;SDS011;548;48.778;9.252;2023-01-01T20:37:30;15.07;;;14.10;;
1122;SDS011;548;48.778;9.252;2023-01-01T20:40:02;16.30;;;15.20;;
1122;SDS011;548;48.778;9.252;2023-01-01T20:42:30;15.67;;;14.63;;
1122;SDS011;548;48.778;9.252;2023-01-01T20:44:56;16.30;;;14.70;;
1122;SDS011;548;48.778;9.252;2023-01-01T20:47:23;15.70;;;14.70;;
1122;SDS011;548;48.778;9.252;2023-01-01T20:49:50;14.20;;;13.30;;
1122;SDS011;548;48.778;9.252;2023-01-01T20:52:16;15.10;;;13.90;;
1122;SDS011;548;48.778;9.252;2023-01-01T20:54:44;14.80;;;13.80;;
1122;SDS011;548;48.778;9.252;2023-01-01T20:57:11;14.70;;;13.80;;
1122;SDS011;548;48.778;9.252;2023-01-01T20:59:38;15.17;;;14.17;;
1122;SDS011;548;48.778;9.252;2023-01-01T21:02:05;16.17;;;14.40;;
1122;SDS011;548;48.778;9.252;2023-01-01T21:04:33;14.43;;;13.33;;
1122;SDS011;548;48.778;9.252;2023-01-01T21:07:02;14.13;;;13.17;;
1122;SDS011;548;48.778;9.252;2023-01-01T21:09:28;15.13;;;14.10;;
1122;SDS011;548;48.778;9.252;2023-01-01T21:11:56;14.83;;;13.90;;
1122;SDS011;548;48.778;9.252;2023-01-01T21:14:25;14.37;;;13.43;;
1122;SDS011;548;48.778;9.252;2023-01-01T21:16:51;14.30;;;13.27;;
1122;SDS011;548;48.778;9.252;2023-01-01T21:19:18;14.70;;;13.70;;
1122;SDS011;548;48.778;9.252;2023-01-01T21:21:46;13.73;;;12.83;;
1122;SDS011;548;48.778;9.252;2023-01-01T21:24:19;15.03;;;14.07;;
1122;SDS011;548;48.778;9.252;2023-01-01T21:26:48;12.77;;;11.97;;
1122;SDS011;548;48.778;9.252;2023-01-01T21:29:18;12.60;;;11.83;;
1122;SDS011;548;48.778;9.252;2023-01-01T21:31:48;14.60;;;13.53;;
1122;SDS011;548;48.778;9.252;2023-01-01T21:34:24;15.03;;;13.93;;